createdAt,value
2022-08-31T00:02:43.086Z,96802.91
2022-08-31T00:05:12.317Z,96802.41
2022-08-31T00:07:40.460Z,96805.31
2022-08-31T00:10:14.465Z,96803.72
2022-08-31T00:12:43.144Z,96799.44
2022-08-31T00:15:14.292Z,96805.56
2022-08-31T00:17:42.362Z,96800.19
2022-08-31T00:20:32.501Z,96800.69
2022-08-31T00:23:01.443Z,96802.78
2022-08-31T00:25:29.084Z,96801.66
2022-08-31T00:27:56.645Z,96802.44
2022-08-31T00:30:24.871Z,96803.50
2022-08-31T00:32:52.708Z,96793.63
2022-08-31T00:35:21.753Z,96797.81
2022-08-31T00:37:49.528Z,96794.59
2022-08-31T00:40:17.350Z,96788.16
2022-08-31T00:42:45.015Z,96796.34
2022-08-31T00:45:12.974Z,96797.41
2022-08-31T00:47:40.628Z,96797.09
2022-08-31T00:50:11.506Z,96798.63
2022-08-31T00:52:45.719Z,96797.50
2022-08-31T00:55:17.924Z,96789.47
2022-08-31T00:57:49.147Z,96774.06
2022-08-31T01:00:20.411Z,96782.25
2022-08-31T01:02:49.171Z,96775.81
2022-08-31T01:05:17.448Z,96774.47
2022-08-31T01:07:48.109Z,96784.50
2022-08-31T01:10:17.830Z,96780.47
2022-08-31T01:12:48.794Z,96776.44
2022-08-31T01:15:18.765Z,96778.75
2022-08-31T01:17:48.581Z,96783.25
2022-08-31T01:20:23.240Z,96781.63
2022-08-31T01:23:07.199Z,96778.91
2022-08-31T01:25:36.588Z,96776.72
2022-08-31T01:28:07.030Z,96777.00
2022-08-31T01:30:35.611Z,96770.56
2022-08-31T01:33:03.236Z,96771.84
2022-08-31T01:35:31.439Z,96773.94
2022-08-31T01:38:01.179Z,96774.16
2022-08-31T01:40:34.298Z,96777.03
2022-08-31T01:43:01.910Z,96769.66
2022-08-31T01:45:30.375Z,96778.66
2022-08-31T01:48:00.128Z,96776.59
2022-08-31T01:50:27.790Z,96775.84
2022-08-31T01:52:55.342Z,96772.72
2022-08-31T01:55:24.251Z,96766.63
2022-08-31T01:57:51.940Z,96768.78
2022-08-31T02:00:20.121Z,96772.56
2022-08-31T02:02:47.832Z,96775.22
2022-08-31T02:05:15.545Z,96769.69
2022-08-31T02:07:43.192Z,96765.75
2022-08-31T02:10:11.060Z,96767.81
2022-08-31T02:12:39.928Z,96765.09
2022-08-31T02:15:09.110Z,96771.19
2022-08-31T02:17:36.948Z,96770.41
2022-08-31T02:20:06.719Z,96763.97
2022-08-31T02:22:34.354Z,96762.13
2022-08-31T02:25:02.000Z,96764.22
2022-08-31T02:27:29.709Z,96760.69
2022-08-31T02:29:58.720Z,96767.72
2022-08-31T02:32:26.423Z,96764.78
2022-08-31T02:34:54.160Z,96762.59
2022-08-31T02:37:21.738Z,96759.38
2022-08-31T02:39:50.369Z,96762.28
2022-08-31T02:42:18.448Z,96757.78
2022-08-31T02:44:46.410Z,96761.00
2022-08-31T02:47:15.507Z,96761.00
2022-08-31T02:49:43.177Z,96764.66
2022-08-31T02:52:10.868Z,96762.94
2022-08-31T02:54:38.510Z,96764.53
2022-08-31T02:57:06.568Z,96771.44
2022-08-31T02:59:34.383Z,96769.59
2022-08-31T03:02:02.097Z,96767.50
2022-08-31T03:04:31.963Z,96774.88
2022-08-31T03:06:59.526Z,96771.44
2022-08-31T03:09:28.238Z,96781.25
2022-08-31T03:11:55.822Z,96774.31
2022-08-31T03:14:23.420Z,96779.13
2022-08-31T03:16:51.995Z,96787.63
2022-08-31T03:19:19.801Z,96788.22
2022-08-31T03:21:55.887Z,96788.22
2022-08-31T03:24:27.136Z,96797.78
2022-08-31T03:26:55.138Z,96803.88
2022-08-31T03:29:22.723Z,96808.38
2022-08-31T03:31:50.235Z,96800.88
2022-08-31T03:34:17.845Z,96816.47
2022-08-31T03:36:45.431Z,96814.53
2022-08-31T03:39:14.419Z,96816.06
2022-08-31T03:41:42.153Z,96826.16
2022-08-31T03:44:09.841Z,96815.56
2022-08-31T03:46:37.816Z,96829.28
2022-08-31T03:49:06.285Z,96829.75
2022-08-31T03:51:33.842Z,96831.94
2022-08-31T03:54:01.408Z,96835.63
2022-08-31T03:56:30.748Z,96840.91
2022-08-31T03:58:58.330Z,96844.63
2022-08-31T04:01:26.032Z,96848.28
2022-08-31T04:03:53.743Z,96847.16
2022-08-31T04:06:22.007Z,96847.63
2022-08-31T04:08:49.617Z,96855.81
2022-08-31T04:11:20.167Z,96858.13
2022-08-31T04:14:08.501Z,96845.50
2022-08-31T04:16:41.169Z,96847.69
2022-08-31T04:19:09.956Z,96851.53
2022-08-31T04:21:37.756Z,96845.31
2022-08-31T04:24:05.523Z,96849.44
2022-08-31T04:26:35.065Z,96851.63
2022-08-31T04:29:12.244Z,96854.75
2022-08-31T04:31:42.305Z,96849.09
2022-08-31T04:34:10.163Z,96849.78
2022-08-31T04:36:38.615Z,96854.16
2022-08-31T04:39:07.568Z,96857.75
2022-08-31T04:41:38.497Z,96857.63
2022-08-31T04:44:06.685Z,96850.75
2022-08-31T04:46:37.504Z,96856.81
2022-08-31T04:49:07.965Z,96853.97
2022-08-31T04:51:36.600Z,96861.66
2022-08-31T04:54:06.379Z,96866.13
2022-08-31T04:56:36.353Z,96867.63
2022-08-31T04:59:07.859Z,96859.38
2022-08-31T05:01:43.050Z,96859.38
2022-08-31T05:04:14.386Z,96864.75
2022-08-31T05:06:44.010Z,96860.28
2022-08-31T05:09:15.275Z,96854.41
2022-08-31T05:11:43.469Z,96856.25
2022-08-31T05:14:11.310Z,96843.81
2022-08-31T05:16:40.399Z,96862.91
2022-08-31T05:19:08.266Z,96854.75
2022-08-31T05:21:39.360Z,96862.00
2022-08-31T05:24:10.019Z,96860.41
2022-08-31T05:26:42.050Z,96863.63
2022-08-31T05:29:10.226Z,96864.75
2022-08-31T05:31:38.904Z,96864.41
2022-08-31T05:34:07.516Z,96857.75
2022-08-31T05:36:35.947Z,96863.63
2022-08-31T05:39:06.337Z,96863.38
2022-08-31T05:41:33.961Z,96865.88
2022-08-31T05:44:04.093Z,96871.56
2022-08-31T05:46:32.085Z,96868.31
2022-08-31T05:48:59.833Z,96872.81
2022-08-31T05:51:27.497Z,96878.69
2022-08-31T05:53:55.285Z,96882.59
2022-08-31T05:56:25.556Z,96877.53
2022-08-31T05:58:55.063Z,96876.94
2022-08-31T06:01:26.523Z,96883.50
2022-08-31T06:03:55.170Z,96882.69
2022-08-31T06:06:22.737Z,96887.75
2022-08-31T06:08:51.865Z,96888.56
2022-08-31T06:11:23.308Z,96887.97
2022-08-31T06:13:54.634Z,96891.19
2022-08-31T06:16:23.279Z,96894.91
2022-08-31T06:18:51.917Z,96894.09
2022-08-31T06:21:22.105Z,96895.38
2022-08-31T06:23:51.960Z,96899.84
2022-08-31T06:26:21.524Z,96894.53
2022-08-31T06:28:50.525Z,96895.91
2022-08-31T06:31:24.991Z,96898.56
2022-08-31T06:33:52.908Z,96891.09
2022-08-31T06:36:22.540Z,96892.47
2022-08-31T06:38:50.408Z,96890.63
2022-08-31T06:41:20.351Z,96894.91
2022-08-31T06:43:48.903Z,96893.84
2022-08-31T06:46:17.819Z,96908.69
2022-08-31T06:48:46.801Z,96899.72
2022-08-31T06:51:14.887Z,96914.00
2022-08-31T06:53:43.370Z,96914.56
2022-08-31T06:56:20.802Z,96917.22
2022-08-31T06:58:53.619Z,96911.94
2022-08-31T07:01:35.734Z,96914.44
2022-08-31T07:04:07.627Z,96922.84
2022-08-31T07:06:37.953Z,96919.63
2022-08-31T07:09:08.013Z,96921.25
2022-08-31T07:11:41.008Z,96918.63
2022-08-31T07:14:13.999Z,96919.41
2022-08-31T07:16:46.110Z,96918.34
2022-08-31T07:19:16.589Z,96917.09
2022-08-31T07:21:46.596Z,96918.25
2022-08-31T07:24:17.937Z,96921.84
2022-08-31T07:26:47.595Z,96924.28
2022-08-31T07:29:17.189Z,96932.31
2022-08-31T07:31:46.401Z,96925.75
2022-08-31T07:34:17.059Z,96928.16
2022-08-31T07:37:02.101Z,96931.84
2022-08-31T07:39:48.460Z,96930.81
2022-08-31T07:42:18.399Z,96936.09
2022-08-31T07:44:53.002Z,96937.13
2022-08-31T07:47:22.673Z,96940.91
2022-08-31T07:49:53.730Z,96930.34
2022-08-31T07:52:24.180Z,96942.56
2022-08-31T07:54:53.991Z,96937.25
2022-08-31T07:57:25.707Z,96939.06
2022-08-31T07:59:55.681Z,96945.78
2022-08-31T08:02:23.674Z,96935.97
2022-08-31T08:04:53.349Z,96936.78
2022-08-31T08:07:21.572Z,96936.31
2022-08-31T08:09:49.318Z,96943.22
2022-08-31T08:12:19.168Z,96948.28
2022-08-31T08:14:50.103Z,96948.88
2022-08-31T08:17:17.660Z,96953.34
2022-08-31T08:19:45.225Z,96955.75
2022-08-31T08:22:17.040Z,96970.38
2022-08-31T08:25:06.967Z,96955.53
2022-08-31T08:27:35.687Z,96967.41
2022-08-31T08:30:03.341Z,96967.63
2022-08-31T08:32:31.867Z,96967.63
2022-08-31T08:34:59.948Z,96981.88
2022-08-31T08:37:54.501Z,96979.25
2022-08-31T08:40:28.237Z,96987.66
2022-08-31T08:42:56.064Z,96979.94
2022-08-31T08:45:24.518Z,96986.06
2022-08-31T08:47:54.462Z,96983.16
2022-08-31T08:50:26.583Z,96982.72
2022-08-31T08:52:57.248Z,96990.19
2022-08-31T08:55:34.542Z,96989.38
2022-08-31T08:58:05.947Z,96986.72
2022-08-31T09:00:34.854Z,96990.97
2022-08-31T09:03:12.237Z,97001.56
2022-08-31T09:05:56.336Z,97003.78
2022-08-31T09:08:41.579Z,97000.06
2022-08-31T09:11:17.739Z,96998.22
2022-08-31T09:13:57.135Z,97004.78
2022-08-31T09:16:40.912Z,96997.53
2022-08-31T09:19:11.811Z,97001.00
2022-08-31T09:32:28.993Z,96982.69
2022-08-31T09:35:03.110Z,96991.44
2022-08-31T09:37:46.660Z,96992.25
2022-08-31T09:40:26.203Z,96991.19
2022-08-31T09:43:13.811Z,96986.00
2022-08-31T09:45:59.077Z,96994.53
2022-08-31T09:48:47.101Z,96990.38
2022-08-31T09:51:25.287Z,96987.28
2022-08-31T09:54:12.772Z,96984.16
2022-08-31T09:56:56.148Z,96990.38
2022-08-31T09:59:39.055Z,96990.69
2022-08-31T10:02:15.487Z,96994.97
2022-08-31T10:04:57.335Z,96991.84
2022-08-31T10:07:44.482Z,96991.91
2022-08-31T10:10:32.029Z,96995.97
2022-08-31T10:13:06.635Z,96997.91
2022-08-31T10:15:43.452Z,96995.94
2022-08-31T10:18:18.649Z,96994.44
2022-08-31T10:21:00.593Z,96989.16
2022-08-31T10:23:38.302Z,96991.56
2022-08-31T10:26:18.384Z,96985.44
2022-08-31T10:28:54.636Z,96983.34
2022-08-31T10:31:30.750Z,96987.16
2022-08-31T10:34:21.284Z,96985.06
2022-08-31T10:37:00.277Z,96986.22
2022-08-31T10:39:37.663Z,96991.03
2022-08-31T10:42:13.738Z,96983.19
2022-08-31T10:44:50.015Z,96988.22
2022-08-31T10:47:33.979Z,96985.34
2022-08-31T10:50:07.039Z,96984.88
2022-08-31T10:52:46.975Z,96977.47
2022-08-31T10:55:34.580Z,96978.59
2022-08-31T10:58:19.613Z,96980.81
2022-08-31T11:00:55.219Z,96977.19
2022-08-31T11:03:49.709Z,96980.72
2022-08-31T11:06:25.993Z,96979.78
2022-08-31T11:09:03.844Z,96979.13
2022-08-31T11:11:43.466Z,96985.97
2022-08-31T11:14:46.164Z,96988.31
2022-08-31T11:17:38.653Z,96991.19
2022-08-31T11:20:16.699Z,96990.16
2022-08-31T11:23:11.853Z,96978.91
2022-08-31T11:26:30.753Z,96988.16
2022-08-31T11:29:12.302Z,96990.84
2022-08-31T11:31:44.932Z,96988.00
2022-08-31T11:34:32.440Z,96979.34
2022-08-31T11:37:08.324Z,96977.97
2022-08-31T11:39:49.388Z,96978.50
2022-08-31T11:42:56.119Z,96981.69
2022-08-31T11:45:38.857Z,96980.00
2022-08-31T11:48:13.646Z,96979.63
2022-08-31T11:51:09.300Z,96977.03
2022-08-31T11:53:45.842Z,96979.25
2022-08-31T11:56:45.126Z,96964.63
2022-08-31T11:59:28.401Z,96975.59
2022-08-31T12:02:29.181Z,96974.00
2022-08-31T12:05:08.437Z,96976.69
2022-08-31T12:07:47.510Z,96977.28
2022-08-31T12:10:40.183Z,96972.81
2022-08-31T12:16:48.428Z,96967.94
2022-08-31T12:20:02.645Z,96968.56
2022-08-31T12:23:28.688Z,96960.88
2022-08-31T12:26:38.089Z,96961.16
2022-08-31T12:29:38.702Z,96962.78
2022-08-31T12:32:37.097Z,96961.19
2022-08-31T12:35:32.446Z,96955.03
2022-08-31T12:38:07.216Z,96956.91
2022-08-31T12:40:42.925Z,96956.63
2022-08-31T12:46:41.663Z,96945.16
2022-08-31T12:49:26.080Z,96947.81
2022-08-31T12:52:04.433Z,96946.22
2022-08-31T12:55:24.931Z,96938.75
2022-08-31T12:58:12.578Z,96939.31
2022-08-31T13:00:43.994Z,96931.81
2022-08-31T13:03:27.226Z,96924.91
2022-08-31T13:06:19.946Z,96919.31
2022-08-31T13:08:57.302Z,96925.44
2022-08-31T13:11:39.888Z,96929.16
2022-08-31T13:14:32.141Z,96913.69
2022-08-31T13:17:09.013Z,96913.41
2022-08-31T13:19:40.915Z,96906.50
2022-08-31T13:22:18.687Z,96915.31
2022-08-31T13:24:55.814Z,96913.69
2022-08-31T13:27:29.604Z,96902.75
2022-08-31T13:30:22.650Z,96901.16
2022-08-31T13:32:58.705Z,96890.75
2022-08-31T13:35:39.015Z,96898.22
2022-08-31T13:38:22.119Z,96892.06
2022-08-31T13:41:00.018Z,96891.25
2022-08-31T13:43:37.512Z,96891.25
2022-08-31T13:46:14.313Z,96888.06
2022-08-31T13:48:45.720Z,96887.00
2022-08-31T13:51:24.251Z,96888.06
2022-08-31T13:54:23.280Z,96887.50
2022-08-31T13:57:03.802Z,96889.13
2022-08-31T13:59:41.148Z,96890.19
2022-08-31T14:02:45.156Z,96889.94
2022-08-31T14:05:38.798Z,96889.09
2022-08-31T14:08:32.504Z,96893.38
2022-08-31T14:11:10.654Z,96894.44
2022-08-31T14:13:51.453Z,96894.72
2022-08-31T14:16:30.713Z,96901.09
2022-08-31T14:19:02.357Z,96898.19
2022-08-31T14:21:39.337Z,96896.56
2022-08-31T14:24:12.416Z,96891.22
2022-08-31T14:26:46.831Z,96888.56
2022-08-31T14:29:19.173Z,96892.84
2022-08-31T14:31:53.269Z,96887.50
2022-08-31T14:34:24.963Z,96889.91
2022-08-31T14:36:57.897Z,96893.91
2022-08-31T14:39:30.222Z,96889.09
2022-08-31T14:42:01.818Z,96886.41
2022-08-31T14:44:33.748Z,96884.25
2022-08-31T14:47:02.993Z,96877.53
2022-08-31T14:49:36.260Z,96871.97
2022-08-31T14:52:06.785Z,96867.69
2022-08-31T14:54:39.133Z,96865.00
2022-08-31T14:57:13.474Z,96874.63
2022-08-31T14:59:48.117Z,96870.91
2022-08-31T15:02:21.503Z,96873.59
2022-08-31T15:04:54.503Z,96871.72
2022-08-31T15:07:23.968Z,96862.66
2022-08-31T15:09:55.401Z,96874.13
2022-08-31T15:12:24.676Z,96863.19
2022-08-31T15:15:00.234Z,96872.25
2022-08-31T15:17:32.681Z,96864.25
2022-08-31T15:20:05.415Z,96865.59
2022-08-31T15:22:40.018Z,96864.50
2022-08-31T15:25:15.324Z,96872.75
2022-08-31T15:27:49.163Z,96869.81
2022-08-31T15:30:23.223Z,96868.47
2022-08-31T15:32:53.226Z,96852.75
2022-08-31T15:35:24.825Z,96856.47
2022-08-31T15:38:03.241Z,96854.34
2022-08-31T15:40:46.802Z,96850.84
2022-08-31T15:43:16.211Z,96850.56
2022-08-31T15:45:48.069Z,96853.75
2022-08-31T15:48:35.407Z,96855.59
2022-08-31T15:51:05.967Z,96854.78
2022-08-31T15:53:42.851Z,96852.13
2022-08-31T15:56:13.407Z,96848.91
2022-08-31T15:58:42.479Z,96852.06
2022-08-31T16:01:19.125Z,96842.50
2022-08-31T16:03:52.882Z,96845.97
2022-08-31T16:06:24.699Z,96839.56
2022-08-31T16:08:58.134Z,96844.63
2022-08-31T16:11:31.761Z,96841.97
2022-08-31T16:14:01.250Z,96833.72
2022-08-31T16:16:37.020Z,96840.38
2022-08-31T16:19:06.259Z,96840.94
2022-08-31T16:21:40.508Z,96840.41
2022-08-31T16:24:10.437Z,96839.84
2022-08-31T16:26:41.375Z,96838.81
2022-08-31T16:29:14.799Z,96846.25
2022-08-31T16:31:52.851Z,96847.31
2022-08-31T16:34:26.719Z,96844.38
2022-08-31T16:36:58.166Z,96847.28
2022-08-31T16:39:29.304Z,96846.75
2022-08-31T16:41:57.785Z,96840.88
2022-08-31T16:44:36.521Z,96838.75
2022-08-31T16:47:09.693Z,96844.28
2022-08-31T16:49:42.451Z,96838.19
2022-08-31T16:52:15.897Z,96833.09
2022-08-31T16:54:48.747Z,96841.63
2022-08-31T16:57:23.225Z,96835.22
2022-08-31T16:59:53.094Z,96839.44
2022-08-31T17:02:28.002Z,96835.69
2022-08-31T17:05:01.267Z,96839.94
2022-08-31T17:07:30.374Z,96842.34
2022-08-31T17:10:02.378Z,96849.22
2022-08-31T17:12:35.425Z,96845.22
2022-08-31T17:15:03.871Z,96848.63
2022-08-31T17:17:35.476Z,96848.63
2022-08-31T17:20:06.892Z,96849.63
2022-08-31T17:22:39.317Z,96856.81
2022-08-31T17:25:09.801Z,96857.81
2022-08-31T17:27:38.367Z,96864.16
2022-08-31T17:30:08.461Z,96856.63
2022-08-31T17:32:44.926Z,96863.75
2022-08-31T17:35:19.457Z,96875.97
2022-08-31T17:37:49.259Z,96883.91
2022-08-31T17:40:22.529Z,96885.47
2022-08-31T17:42:52.971Z,96884.38
2022-08-31T17:45:24.017Z,96888.59
2022-08-31T17:47:57.313Z,96889.34
2022-08-31T17:50:27.037Z,96898.63
2022-08-31T17:52:55.393Z,96894.88
2022-08-31T17:55:23.870Z,96892.41
2022-08-31T17:57:51.857Z,96900.59
2022-08-31T18:00:20.452Z,96901.59
2022-08-31T18:02:49.692Z,96899.38
2022-08-31T18:05:19.503Z,96917.38
2022-08-31T18:07:50.137Z,96918.81
2022-08-31T18:10:18.824Z,96915.53
2022-08-31T18:12:47.648Z,96920.47
2022-08-31T18:15:19.103Z,96928.06
2022-08-31T18:17:47.820Z,96927.22
2022-08-31T18:20:16.120Z,96943.06
2022-08-31T18:22:50.073Z,96947.00
2022-08-31T18:25:20.470Z,96949.38
2022-08-31T18:30:18.374Z,96939.72
2022-08-31T18:32:48.411Z,96946.56
2022-08-31T18:35:17.788Z,96945.69
2022-08-31T18:37:47.125Z,96960.50
2022-08-31T18:40:33.025Z,96954.06
2022-08-31T18:43:18.975Z,96960.81
2022-08-31T18:45:49.321Z,96963.53
2022-08-31T18:48:25.984Z,96957.75
2022-08-31T18:50:55.235Z,96951.13
2022-08-31T18:53:27.902Z,96958.69
2022-08-31T18:55:59.535Z,96947.88
2022-08-31T18:58:28.763Z,96961.56
2022-08-31T19:00:58.675Z,96958.22
2022-08-31T19:03:27.605Z,96951.69
2022-08-31T19:05:56.739Z,96959.19
2022-08-31T19:08:26.597Z,96951.16
2022-08-31T19:10:57.381Z,96950.00
2022-08-31T19:13:28.698Z,96946.78
2022-08-31T19:16:01.216Z,96943.78
2022-08-31T19:18:31.534Z,96943.72
2022-08-31T19:21:00.334Z,96945.78
2022-08-31T19:23:29.918Z,96945.22
2022-08-31T19:25:57.671Z,96946.72
2022-08-31T19:28:25.373Z,96946.16
2022-08-31T19:30:53.196Z,96951.69
2022-08-31T19:33:24.856Z,96954.00
2022-08-31T19:35:59.528Z,96951.84
2022-08-31T19:38:32.667Z,96959.19
2022-08-31T19:41:00.867Z,96956.69
2022-08-31T19:43:53.659Z,96960.25
2022-08-31T19:46:26.462Z,96961.75
2022-08-31T19:48:56.399Z,96959.22
2022-08-31T19:51:24.476Z,96963.59
2022-08-31T19:53:55.152Z,96962.91
2022-08-31T19:56:29.563Z,96954.28
2022-08-31T19:58:58.980Z,96969.78
2022-08-31T20:01:32.892Z,96963.59
2022-08-31T20:04:02.254Z,96964.03
2022-08-31T20:06:31.667Z,96960.50
2022-08-31T20:09:01.013Z,96968.53
2022-08-31T20:11:31.775Z,96956.78
2022-08-31T20:14:00.463Z,96954.84
2022-08-31T20:16:33.696Z,96963.44
2022-08-31T20:19:04.534Z,96958.63
2022-08-31T20:21:34.605Z,96958.25
2022-08-31T20:24:06.762Z,96960.56
2022-08-31T20:26:47.210Z,96962.06
2022-08-31T20:29:19.834Z,96968.03
2022-08-31T20:31:49.874Z,96961.56
2022-08-31T20:34:19.590Z,96965.47
2022-08-31T20:36:50.105Z,96957.75
2022-08-31T20:39:20.254Z,96962.25
2022-08-31T20:41:49.490Z,96950.50
2022-08-31T20:44:20.357Z,96939.56
2022-08-31T20:47:07.974Z,96946.25
2022-08-31T20:49:39.090Z,96938.31
2022-08-31T20:52:07.984Z,96947.88
2022-08-31T20:54:37.442Z,96943.59
2022-08-31T20:57:09.087Z,96950.97
2022-08-31T20:59:37.023Z,96944.53
2022-08-31T21:02:07.786Z,96952.31
2022-08-31T21:04:37.874Z,96945.28
2022-08-31T21:07:06.576Z,96956.50
2022-08-31T21:09:34.645Z,96959.81
2022-08-31T21:12:07.179Z,96958.22
2022-08-31T21:14:36.580Z,96959.00
2022-08-31T21:17:06.122Z,96957.16
2022-08-31T21:19:38.391Z,96958.22
2022-08-31T21:22:07.599Z,96961.53
2022-08-31T21:24:36.130Z,96962.78
2022-08-31T21:27:07.877Z,96961.16
2022-08-31T21:29:36.930Z,96961.16
2022-08-31T21:32:06.837Z,96965.44
2022-08-31T21:34:35.040Z,96969.47
2022-08-31T21:37:02.716Z,96971.28
2022-08-31T21:39:32.405Z,96971.72
2022-08-31T21:42:00.028Z,96971.59
2022-08-31T21:44:28.959Z,96974.91
2022-08-31T21:46:56.748Z,96971.91
2022-08-31T21:49:24.412Z,96973.97
2022-08-31T21:51:54.214Z,96972.38
2022-08-31T21:54:26.090Z,96971.53
2022-08-31T21:56:55.852Z,96967.50
2022-08-31T21:59:25.421Z,96982.19
2022-08-31T22:01:59.182Z,96981.84
2022-08-31T22:04:28.045Z,96977.22
2022-08-31T22:06:56.362Z,96982.72
2022-08-31T22:09:24.826Z,96980.75
2022-08-31T22:11:56.508Z,96982.22
2022-08-31T22:14:28.203Z,96989.75
2022-08-31T22:16:59.037Z,96988.81
2022-08-31T22:19:28.478Z,96989.81
2022-08-31T22:21:58.984Z,96994.50
2022-08-31T22:24:29.185Z,96992.31
2022-08-31T22:26:58.997Z,97000.44
2022-08-31T22:29:29.359Z,96996.44
2022-08-31T22:32:00.761Z,97001.31
2022-08-31T22:34:28.666Z,96997.88
2022-08-31T22:36:57.372Z,97005.81
2022-08-31T22:39:27.968Z,97001.97
2022-08-31T22:41:56.138Z,97001.63
2022-08-31T22:44:27.428Z,97007.53
2022-08-31T22:46:56.822Z,97003.25
2022-08-31T22:49:27.022Z,97004.06
2022-08-31T22:51:55.201Z,96999.00
2022-08-31T22:54:23.162Z,97008.41
2022-08-31T22:56:51.673Z,97000.09
2022-08-31T22:59:26.118Z,97005.97
2022-08-31T23:01:55.923Z,96999.22
2022-08-31T23:04:27.538Z,97000.44
2022-08-31T23:06:57.348Z,97003.88
2022-08-31T23:09:27.591Z,97001.03
2022-08-31T23:11:56.393Z,96998.59
2022-08-31T23:14:24.530Z,96990.88
2022-08-31T23:16:55.148Z,96982.78
2022-08-31T23:19:26.804Z,96990.88
2022-08-31T23:21:57.699Z,96988.44
2022-08-31T23:24:27.926Z,96995.78
2022-08-31T23:27:01.620Z,96987.88
2022-08-31T23:29:32.107Z,96985.25
2022-08-31T23:32:00.897Z,96988.44
2022-08-31T23:34:29.806Z,96981.53
2022-08-31T23:36:57.566Z,96977.03
2022-08-31T23:39:25.438Z,96971.19
2022-08-31T23:41:53.480Z,96963.25
2022-08-31T23:44:22.201Z,96965.09
2022-08-31T23:46:50.357Z,96967.75
2022-08-31T23:49:20.565Z,96964.47
2022-08-31T23:51:50.447Z,96955.59
2022-08-31T23:54:18.438Z,96951.69
2022-08-31T23:56:48.798Z,96955.59
2022-08-31T23:59:19.747Z,96957.22
